createdAt,value
2022-10-23T00:01:36.345Z,3.76
2022-10-23T00:04:09.241Z,3.79
2022-10-23T00:06:37.275Z,3.78
2022-10-23T00:09:07.083Z,3.76
2022-10-23T00:11:35.619Z,3.75
2022-10-23T00:14:05.890Z,3.74
2022-10-23T00:16:33.485Z,3.73
2022-10-23T00:19:00.835Z,3.73
2022-10-23T00:21:28.245Z,3.74
2022-10-23T00:23:55.682Z,3.74
2022-10-23T00:26:23.125Z,3.73
2022-10-23T00:28:52.922Z,3.72
2022-10-23T00:31:21.601Z,3.72
2022-10-23T00:33:49.395Z,3.76
2022-10-23T00:36:19.591Z,3.74
2022-10-23T00:38:48.271Z,3.72
2022-10-23T00:41:20.006Z,3.69
2022-10-23T00:43:59.334Z,3.68
2022-10-23T00:46:26.968Z,3.65
2022-10-23T00:48:54.397Z,3.62
2022-10-23T00:51:22.041Z,3.60
2022-10-23T00:54:01.262Z,3.58
2022-10-23T00:56:44.124Z,3.55
2022-10-23T00:59:12.092Z,3.55
2022-10-23T01:01:39.554Z,3.47
2022-10-23T01:04:10.374Z,3.47
2022-10-23T01:06:43.691Z,3.36
2022-10-23T01:09:38.040Z,3.36
2022-10-23T01:28:25.127Z,3.15
2022-10-23T01:30:54.258Z,3.18
2022-10-23T01:33:29.566Z,3.21
2022-10-23T01:38:44.527Z,3.26
2022-10-23T01:41:34.238Z,3.26
2022-10-23T01:44:14.248Z,3.26
2022-10-23T01:46:44.080Z,3.29
2022-10-23T01:49:14.401Z,3.33
2022-10-23T01:51:49.007Z,3.33
2022-10-23T01:54:18.693Z,3.33
2022-10-23T01:56:48.965Z,3.32
2022-10-23T01:59:24.903Z,3.30
2022-10-23T02:01:56.450Z,3.30
2022-10-23T02:04:31.517Z,3.22
2022-10-23T02:06:59.112Z,3.22
2022-10-23T02:09:26.648Z,3.14
2022-10-23T02:12:00.884Z,3.09
2022-10-23T02:17:17.048Z,2.98
2022-10-23T02:19:54.481Z,2.85
2022-10-23T02:25:14.157Z,2.76
2022-10-23T02:27:48.628Z,2.61
2022-10-23T02:30:19.204Z,2.54
2022-10-23T02:32:55.126Z,2.54
2022-10-23T02:35:25.035Z,2.50
2022-10-23T02:38:01.863Z,2.46
2022-10-23T02:40:41.425Z,2.43
2022-10-23T02:43:12.625Z,2.35
2022-10-23T02:48:34.163Z,2.32
2022-10-23T02:51:21.446Z,2.29
2022-10-23T02:59:25.972Z,2.26
2022-10-23T03:02:03.126Z,2.26
2022-10-23T03:04:33.298Z,2.23
2022-10-23T03:07:01.421Z,2.17
2022-10-23T03:09:29.976Z,2.12
2022-10-23T03:11:57.369Z,2.06
2022-10-23T03:14:24.789Z,2.01
2022-10-23T03:16:52.163Z,2.01
2022-10-23T03:19:19.543Z,1.98
2022-10-23T03:21:46.977Z,1.98
2022-10-23T03:24:14.396Z,1.99
2022-10-23T03:26:44.010Z,1.97
2022-10-23T03:29:11.463Z,1.99
2022-10-23T03:31:45.417Z,1.99
2022-10-23T03:34:15.317Z,1.94
2022-10-23T03:36:43.518Z,1.86
2022-10-23T03:39:11.578Z,1.83
2022-10-23T03:41:38.991Z,1.83
2022-10-23T03:44:06.396Z,1.78
2022-10-23T03:46:33.923Z,1.77
2022-10-23T03:49:01.516Z,1.77
2022-10-23T03:51:28.936Z,1.74
2022-10-23T03:53:58.319Z,1.70
2022-10-23T03:56:27.471Z,1.63
2022-10-23T03:58:55.046Z,1.63
2022-10-23T04:01:25.774Z,1.61
2022-10-23T04:03:54.692Z,1.58
2022-10-23T04:06:24.778Z,1.55
2022-10-23T04:08:56.580Z,1.55
2022-10-23T04:11:24.408Z,1.54
2022-10-23T04:13:51.936Z,1.54
2022-10-23T04:16:19.399Z,1.55
2022-10-23T04:18:47.086Z,1.52
2022-10-23T04:21:14.574Z,1.53
2022-10-23T04:23:42.866Z,1.55
2022-10-23T04:26:14.199Z,1.72
2022-10-23T04:28:42.173Z,1.72
2022-10-23T04:31:09.568Z,1.73
2022-10-23T04:33:41.404Z,1.71
2022-10-23T04:36:10.635Z,1.65
2022-10-23T04:38:40.672Z,1.65
2022-10-23T04:41:09.126Z,1.68
2022-10-23T04:43:38.027Z,1.70
2022-10-23T04:46:08.682Z,1.69
2022-10-23T04:48:37.159Z,1.69
2022-10-23T04:51:33.880Z,1.72
2022-10-23T04:54:21.444Z,1.67
2022-10-23T04:57:07.836Z,1.72
2022-10-23T04:59:54.503Z,1.74
2022-10-23T05:02:25.348Z,1.78
2022-10-23T05:04:56.042Z,1.84
2022-10-23T05:07:45.821Z,1.84
2022-10-23T05:10:31.355Z,1.89
2022-10-23T05:13:15.538Z,2.03
2022-10-23T05:15:45.829Z,2.03
2022-10-23T05:18:22.159Z,2.11
2022-10-23T05:20:55.089Z,2.19
2022-10-23T05:23:26.928Z,2.28
2022-10-23T05:26:05.872Z,2.28
2022-10-23T05:28:34.478Z,2.37
2022-10-23T05:31:06.248Z,2.39
2022-10-23T05:33:38.439Z,2.45
2022-10-23T05:36:08.048Z,2.48
2022-10-23T05:38:37.566Z,2.58
2022-10-23T05:41:16.935Z,2.58
2022-10-23T05:43:48.865Z,2.63
2022-10-23T05:46:44.642Z,2.70
2022-10-23T05:49:20.376Z,2.77
2022-10-23T05:52:14.927Z,2.85
2022-10-23T05:55:07.777Z,2.88
2022-10-23T05:58:01.829Z,2.88
2022-10-23T06:00:56.322Z,2.91
2022-10-23T06:03:48.334Z,2.96
2022-10-23T06:06:21.466Z,3.00
2022-10-23T06:08:58.198Z,3.02
2022-10-23T06:11:28.094Z,3.07
2022-10-23T06:14:04.353Z,3.13
2022-10-23T06:16:37.920Z,3.13
2022-10-23T06:19:19.100Z,3.13
2022-10-23T06:21:57.547Z,3.19
2022-10-23T06:24:48.344Z,3.25
2022-10-23T06:27:31.462Z,3.25
2022-10-23T06:30:12.238Z,3.29
2022-10-23T06:32:46.114Z,3.34
2022-10-23T06:35:26.930Z,3.37
2022-10-23T06:37:59.309Z,3.42
2022-10-23T06:40:55.512Z,3.45
2022-10-23T06:43:47.348Z,3.47
2022-10-23T06:46:30.318Z,3.49
2022-10-23T06:49:25.368Z,3.71
2022-10-23T06:52:11.074Z,3.71
2022-10-23T06:54:57.183Z,3.77
2022-10-23T06:57:54.061Z,3.87
2022-10-23T07:00:33.664Z,3.85
2022-10-23T07:03:20.127Z,3.91
2022-10-23T07:06:01.520Z,3.98
2022-10-23T07:08:43.006Z,4.01
2022-10-23T07:11:35.330Z,4.08
2022-10-23T07:14:20.537Z,4.36
2022-10-23T07:17:04.213Z,4.45
2022-10-23T07:19:37.125Z,4.45
2022-10-23T07:22:16.247Z,4.52
2022-10-23T07:25:12.777Z,4.54
2022-10-23T07:27:53.102Z,4.54
2022-10-23T07:30:31.773Z,4.55
2022-10-23T07:33:12.083Z,4.55
2022-10-23T07:35:57.631Z,4.55
2022-10-23T07:38:36.005Z,4.60
2022-10-23T07:41:19.820Z,4.60
2022-10-23T07:44:03.431Z,4.62
2022-10-23T07:46:40.207Z,4.69
2022-10-23T07:49:20.611Z,4.69
2022-10-23T07:52:05.161Z,4.78
2022-10-23T07:55:06.073Z,4.78
2022-10-23T07:57:46.159Z,4.81
2022-10-23T08:00:30.278Z,4.81
2022-10-23T08:03:27.293Z,4.85
2022-10-23T08:06:08.743Z,4.83
2022-10-23T08:08:53.676Z,4.83
2022-10-23T08:11:40.583Z,4.73
2022-10-23T08:14:22.518Z,4.73
2022-10-23T08:16:59.476Z,4.73
2022-10-23T08:19:56.039Z,4.75
2022-10-23T08:22:33.098Z,4.75
2022-10-23T08:25:08.377Z,4.74
2022-10-23T08:27:40.574Z,4.75
2022-10-23T08:30:18.180Z,4.74
2022-10-23T08:32:52.024Z,4.74
2022-10-23T08:35:21.698Z,4.72
2022-10-23T08:38:06.069Z,4.74
2022-10-23T08:40:57.184Z,4.80
2022-10-23T08:44:20.480Z,4.84
2022-10-23T08:47:21.631Z,4.84
2022-10-23T08:50:25.400Z,4.89
2022-10-23T08:56:51.103Z,4.98
2022-10-23T08:59:56.543Z,4.97
2022-10-23T09:05:48.896Z,5.06
2022-10-23T09:08:54.373Z,4.99
2022-10-23T09:11:47.921Z,5.01
2022-10-23T09:15:07.727Z,5.05
2022-10-23T09:17:41.647Z,5.07
2022-10-23T09:20:46.030Z,5.07
2022-10-23T09:23:36.818Z,5.08
2022-10-23T09:26:33.053Z,5.16
2022-10-23T09:29:33.240Z,5.26
2022-10-23T09:32:22.407Z,5.25
2022-10-23T09:34:59.052Z,5.26
2022-10-23T09:37:39.079Z,5.26
2022-10-23T09:40:27.048Z,5.26
2022-10-23T09:43:32.388Z,5.29
2022-10-23T09:46:41.382Z,5.34
2022-10-23T09:49:35.458Z,5.43
2022-10-23T09:55:02.586Z,5.51
2022-10-23T09:58:05.301Z,5.52
2022-10-23T10:01:03.079Z,5.49
2022-10-23T10:04:00.859Z,5.51
2022-10-23T10:06:36.482Z,5.52
2022-10-23T10:09:17.763Z,5.53
2022-10-23T10:12:05.556Z,5.52
2022-10-23T10:15:21.650Z,5.53
2022-10-23T10:30:02.932Z,5.63
2022-10-23T10:36:07.234Z,5.65
2022-10-23T10:44:48.543Z,5.66
2022-10-23T10:47:50.199Z,5.60
2022-10-23T11:01:55.967Z,5.69
2022-10-23T11:05:00.344Z,5.64
2022-10-23T11:08:17.017Z,5.70
2022-10-23T11:10:57.356Z,5.64
2022-10-23T11:19:15.991Z,5.69
2022-10-23T11:28:16.838Z,5.70
2022-10-23T11:34:28.215Z,5.71
2022-10-23T11:37:05.221Z,5.65
2022-10-23T11:40:05.558Z,5.66
2022-10-23T11:45:54.290Z,5.73
2022-10-23T11:48:52.720Z,5.67
2022-10-23T11:51:51.609Z,5.66
2022-10-23T11:54:30.898Z,5.66
2022-10-23T11:57:25.543Z,5.67
2022-10-23T12:00:07.027Z,5.68
2022-10-23T12:03:01.404Z,5.74
2022-10-23T12:08:41.350Z,5.76
2022-10-23T12:11:57.513Z,5.70
2022-10-23T12:14:41.871Z,5.69
2022-10-23T12:23:25.300Z,5.73
2022-10-23T12:29:40.039Z,5.74
2022-10-23T12:32:55.312Z,5.67
2022-10-23T12:35:58.514Z,5.67
2022-10-23T12:38:38.640Z,5.70
2022-10-23T12:44:17.704Z,5.77
2022-10-23T12:47:02.821Z,5.71
2022-10-23T12:49:51.681Z,5.71
2022-10-23T12:52:28.121Z,5.72
2022-10-23T12:55:02.540Z,5.74
2022-10-23T12:57:56.640Z,5.81
2022-10-23T13:00:42.272Z,5.77
2022-10-23T13:03:23.536Z,5.76
2022-10-23T13:06:00.517Z,5.77
2022-10-23T13:08:42.195Z,5.78
2022-10-23T13:11:36.620Z,5.78
2022-10-23T13:14:34.898Z,5.78
2022-10-23T13:17:19.087Z,5.79
2022-10-23T13:20:03.640Z,5.78
2022-10-23T13:22:57.691Z,5.76
2022-10-23T13:25:41.167Z,5.76
2022-10-23T13:34:29.728Z,5.73
2022-10-23T13:37:06.238Z,5.73
2022-10-23T13:39:44.806Z,5.71
2022-10-23T13:42:26.083Z,5.68
2022-10-23T13:45:07.188Z,5.69
2022-10-23T13:47:48.915Z,5.65
2022-10-23T13:50:25.897Z,5.66
2022-10-23T13:53:33.852Z,5.63
2022-10-23T13:56:22.812Z,5.60
2022-10-23T13:59:03.621Z,5.56
2022-10-23T14:01:43.561Z,5.53
2022-10-23T14:04:22.683Z,5.53
2022-10-23T14:06:59.264Z,5.52
2022-10-23T14:10:00.192Z,5.51
2022-10-23T14:13:00.205Z,5.49
2022-10-23T14:15:46.869Z,5.49
2022-10-23T14:18:33.260Z,5.49
2022-10-23T14:21:29.491Z,5.47
2022-10-23T14:24:01.982Z,5.47
2022-10-23T14:26:47.945Z,5.46
2022-10-23T14:29:32.476Z,5.46
2022-10-23T14:32:12.122Z,5.44
2022-10-23T14:35:00.398Z,5.41
2022-10-23T14:38:09.815Z,5.41
2022-10-23T14:40:54.243Z,5.41
2022-10-23T14:43:40.292Z,5.40
2022-10-23T14:46:25.604Z,5.39
2022-10-23T14:49:08.069Z,5.39
2022-10-23T14:51:54.128Z,5.39
2022-10-23T14:54:42.986Z,5.37
2022-10-23T14:57:26.076Z,5.37
2022-10-23T15:00:11.447Z,5.35
2022-10-23T15:02:54.363Z,5.35
2022-10-23T15:05:42.661Z,5.34
2022-10-23T15:08:25.812Z,5.35
2022-10-23T15:11:20.657Z,5.35
2022-10-23T15:14:03.531Z,5.32
2022-10-23T15:16:53.629Z,5.32
2022-10-23T15:19:29.215Z,5.32
2022-10-23T15:22:09.906Z,5.32
2022-10-23T15:24:55.034Z,5.30
2022-10-23T15:27:40.668Z,5.30
2022-10-23T15:30:18.280Z,5.29
2022-10-23T15:33:11.340Z,5.29
2022-10-23T15:35:52.379Z,5.28
2022-10-23T15:38:45.503Z,5.27
2022-10-23T15:41:39.865Z,5.27
2022-10-23T15:44:18.899Z,5.26
2022-10-23T15:47:13.405Z,5.26
2022-10-23T15:49:57.143Z,5.26
2022-10-23T15:52:44.034Z,5.26
2022-10-23T15:55:33.593Z,5.25
2022-10-23T15:58:12.423Z,5.25
2022-10-23T16:00:52.932Z,5.25
2022-10-23T16:03:32.852Z,5.24
2022-10-23T16:06:20.440Z,5.25
2022-10-23T16:09:06.191Z,5.26
2022-10-23T16:11:43.402Z,5.24
2022-10-23T16:14:19.143Z,5.24
2022-10-23T16:16:58.936Z,5.25
2022-10-23T16:19:40.327Z,5.24
2022-10-23T16:22:28.312Z,5.23
2022-10-23T16:25:06.019Z,5.24
2022-10-23T16:27:55.273Z,5.24
2022-10-23T16:30:38.831Z,5.25
2022-10-23T16:33:37.005Z,5.23
2022-10-23T16:36:28.843Z,5.24
2022-10-23T16:39:33.058Z,5.25
2022-10-23T16:42:31.182Z,5.25
2022-10-23T16:45:37.930Z,5.26
2022-10-23T16:48:19.029Z,5.24
2022-10-23T16:51:05.032Z,5.25
2022-10-23T16:53:49.939Z,5.25
2022-10-23T16:56:28.830Z,5.26
2022-10-23T16:59:13.382Z,5.26
2022-10-23T17:01:48.852Z,5.26
2022-10-23T17:04:22.793Z,5.27
2022-10-23T17:07:10.888Z,5.26
2022-10-23T17:09:51.982Z,5.27
2022-10-23T17:12:42.403Z,5.27
2022-10-23T17:15:28.283Z,5.27
2022-10-23T17:18:04.053Z,5.27
2022-10-23T17:20:35.921Z,5.27
2022-10-23T17:23:13.807Z,5.28
2022-10-23T17:25:56.457Z,5.28
2022-10-23T17:28:43.155Z,5.28
2022-10-23T17:31:25.684Z,5.28
2022-10-23T17:34:07.536Z,5.29
2022-10-23T17:36:50.196Z,5.29
2022-10-23T17:39:46.899Z,5.29
2022-10-23T17:42:25.258Z,5.30
2022-10-23T17:45:02.830Z,5.30
2022-10-23T17:47:36.867Z,5.28
2022-10-23T17:50:20.465Z,5.30
2022-10-23T17:53:16.310Z,5.30
2022-10-23T17:55:50.782Z,5.32
2022-10-23T17:58:35.160Z,5.30
2022-10-23T18:01:23.384Z,5.31
2022-10-23T18:04:05.059Z,5.33
2022-10-23T18:06:53.912Z,5.32
2022-10-23T18:09:29.573Z,5.32
2022-10-23T18:12:20.119Z,5.34
2022-10-23T18:15:04.887Z,5.32
2022-10-23T18:17:49.509Z,5.34
2022-10-23T18:20:27.868Z,5.33
2022-10-23T18:23:11.473Z,5.34
2022-10-23T18:25:57.018Z,5.34
2022-10-23T18:28:54.671Z,5.35
2022-10-23T18:31:32.846Z,5.36
2022-10-23T18:34:12.764Z,5.35
2022-10-23T18:36:48.933Z,5.35
2022-10-23T18:39:33.220Z,5.37
2022-10-23T18:42:25.254Z,5.36
2022-10-23T18:45:04.273Z,5.36
2022-10-23T18:47:47.185Z,5.38
2022-10-23T18:50:27.477Z,5.36
2022-10-23T18:53:07.130Z,5.38
2022-10-23T18:55:50.560Z,5.37
2022-10-23T18:58:25.219Z,5.38
2022-10-23T19:00:56.666Z,5.38
2022-10-23T19:03:38.796Z,5.38
2022-10-23T19:06:14.159Z,5.39
2022-10-23T19:08:51.301Z,5.39
2022-10-23T19:11:33.798Z,5.38
2022-10-23T19:14:13.332Z,5.39
2022-10-23T19:17:04.970Z,5.40
2022-10-23T19:19:55.086Z,5.41
2022-10-23T19:22:37.544Z,5.40
2022-10-23T19:25:22.335Z,5.41
2022-10-23T19:28:08.654Z,5.41
2022-10-23T19:30:45.475Z,5.43
2022-10-23T19:33:24.642Z,5.43
2022-10-23T19:36:23.527Z,5.42
2022-10-23T19:39:00.159Z,5.43
2022-10-23T19:41:34.666Z,5.44
2022-10-23T19:44:10.950Z,5.46
2022-10-23T19:46:51.489Z,5.46
2022-10-23T19:49:28.117Z,5.46
2022-10-23T19:51:59.958Z,5.46
2022-10-23T19:54:35.168Z,5.46
2022-10-23T19:57:06.211Z,5.48
2022-10-23T19:59:38.513Z,5.47
2022-10-23T20:02:14.238Z,5.48
2022-10-23T20:04:54.260Z,5.49
2022-10-23T20:07:29.468Z,5.50
2022-10-23T20:10:07.616Z,5.51
2022-10-23T20:12:47.478Z,5.51
2022-10-23T20:15:32.711Z,5.50
2022-10-23T20:18:10.129Z,5.52
2022-10-23T20:20:46.070Z,5.51
2022-10-23T20:23:18.186Z,5.51
2022-10-23T20:25:48.569Z,5.52
2022-10-23T20:28:19.789Z,5.51
2022-10-23T20:30:50.140Z,5.52
2022-10-23T20:33:19.779Z,5.53
2022-10-23T20:35:50.185Z,5.53
2022-10-23T20:38:27.082Z,5.53
2022-10-23T20:41:05.238Z,5.51
2022-10-23T20:43:34.947Z,5.51
2022-10-23T20:46:08.619Z,5.52
2022-10-23T20:48:46.295Z,5.53
2022-10-23T20:51:20.739Z,5.53
2022-10-23T20:53:51.952Z,5.53
2022-10-23T20:56:33.219Z,5.54
2022-10-23T20:59:05.865Z,5.54
2022-10-23T21:01:36.762Z,5.53
2022-10-23T21:04:06.721Z,5.54
2022-10-23T21:06:51.884Z,5.55
2022-10-23T21:09:32.081Z,5.56
2022-10-23T21:12:02.730Z,5.56
2022-10-23T21:14:37.830Z,5.58
2022-10-23T21:17:11.178Z,5.56
2022-10-23T21:19:40.109Z,5.58
2022-10-23T21:22:08.925Z,5.59
2022-10-23T21:24:38.219Z,5.58
2022-10-23T21:27:08.310Z,5.59
2022-10-23T21:29:36.122Z,5.60
2022-10-23T21:32:05.082Z,5.59
2022-10-23T21:34:36.000Z,5.60
2022-10-23T21:37:14.089Z,5.60
2022-10-23T21:39:44.615Z,5.62
2022-10-23T21:42:14.311Z,5.63
2022-10-23T21:44:42.335Z,5.61
2022-10-23T21:47:10.508Z,5.61
2022-10-23T21:49:38.738Z,5.62
2022-10-23T21:52:07.572Z,5.64
2022-10-23T21:54:35.974Z,5.65
2022-10-23T21:57:03.816Z,5.63
2022-10-23T21:59:33.215Z,5.65
2022-10-23T22:02:02.873Z,5.64
2022-10-23T22:04:30.400Z,5.65
2022-10-23T22:06:58.094Z,5.66
2022-10-23T22:09:25.708Z,5.67
2022-10-23T22:11:54.144Z,5.68
2022-10-23T22:14:24.563Z,5.69
2022-10-23T22:16:52.874Z,5.69
2022-10-23T22:19:22.558Z,5.69
2022-10-23T22:21:51.411Z,5.69
2022-10-23T22:24:19.781Z,5.69
2022-10-23T22:26:51.701Z,5.69
2022-10-23T22:29:22.568Z,5.69
2022-10-23T22:31:50.817Z,5.71
2022-10-23T22:34:27.063Z,5.72
2022-10-23T22:37:12.554Z,5.72
2022-10-23T22:39:40.476Z,5.72
2022-10-23T22:42:08.540Z,5.73
2022-10-23T22:44:36.031Z,5.75
2022-10-23T22:47:03.777Z,5.76
2022-10-23T22:49:31.133Z,5.76
2022-10-23T22:51:58.446Z,5.77
2022-10-23T22:54:26.061Z,5.79
2022-10-23T22:56:53.693Z,5.79
2022-10-23T22:59:21.496Z,5.80
2022-10-23T23:01:50.480Z,5.82
2022-10-23T23:04:37.166Z,5.82
2022-10-23T23:07:08.232Z,5.82
2022-10-23T23:09:39.161Z,5.82
2022-10-23T23:12:07.785Z,5.83
2022-10-23T23:14:36.183Z,5.84
2022-10-23T23:17:03.525Z,5.83
2022-10-23T23:19:30.988Z,5.85
2022-10-23T23:21:59.549Z,5.85
2022-10-23T23:24:27.560Z,5.84
2022-10-23T23:26:54.879Z,5.83
2022-10-23T23:29:22.281Z,5.83
2022-10-23T23:31:49.683Z,5.84
2022-10-23T23:34:17.093Z,5.83
2022-10-23T23:36:44.582Z,5.83
2022-10-23T23:39:12.206Z,5.84
2022-10-23T23:41:39.585Z,5.86
2022-10-23T23:44:08.574Z,5.85
2022-10-23T23:46:35.938Z,5.85
2022-10-23T23:49:03.335Z,5.85
2022-10-23T23:51:30.688Z,5.85
2022-10-23T23:53:58.198Z,5.84
2022-10-23T23:56:25.523Z,5.85
2022-10-23T23:58:52.839Z,5.83
